Time;durP1;ratioP1;P1;durP2;ratioP2;P2;SDS_P1;SDS_P2;PMS_P1;PMS_P2;Temp;Humidity;BMP_temperature;BMP_pressure;BME280_temperature;BME280_humidity;BME280_pressure;Samples;Min_cycle;Max_cycle;Signal;HPM_P1;HPM_P2
2022/07/29 00:01:48;;;;;;;2.72;0.60;;;18.90;65.90;;;;;;5066392;28;20447;-61
2022/07/29 00:04:13;;;;;;;1.58;0.50;;;18.90;65.90;;;;;;5066620;28;20020;-61
2022/07/29 00:06:39;;;;;;;1.10;0.40;;;18.90;66.00;;;;;;5066525;28;20391;-61
2022/07/29 00:09:05;;;;;;;2.10;0.57;;;18.90;66.00;;;;;;5066694;28;20033;-61
2022/07/29 00:11:32;;;;;;;2.60;0.57;;;18.90;66.00;;;;;;5066022;28;20055;-61
2022/07/29 00:13:58;;;;;;;1.52;0.50;;;18.90;66.10;;;;;;5066375;28;20100;-61
2022/07/29 00:16:23;;;;;;;2.20;0.55;;;18.90;66.20;;;;;;5079889;28;20029;-61
2022/07/29 00:18:49;;;;;;;2.13;0.60;;;18.90;66.40;;;;;;5065317;28;20361;-61
2022/07/29 00:21:14;;;;;;;2.60;0.30;;;18.80;66.60;;;;;;5065555;28;20077;-61
2022/07/29 00:23:40;;;;;;;1.38;0.50;;;18.80;66.80;;;;;;5069083;28;20020;-61
2022/07/29 00:26:06;;;;;;;6.30;0.40;;;18.80;66.90;;;;;;5069834;28;20526;-61
2022/07/29 00:28:32;;;;;;;1.35;0.40;;;18.80;67.00;;;;;;5066739;28;20025;-61
2022/07/29 00:30:57;;;;;;;2.22;0.43;;;18.80;67.20;;;;;;5071296;28;20036;-61
2022/07/29 00:33:23;;;;;;;1.83;0.40;;;18.80;67.30;;;;;;5069884;28;20525;-61
2022/07/29 00:35:49;;;;;;;0.90;0.45;;;18.80;67.30;;;;;;5066808;28;20035;-61
2022/07/29 00:38:17;;;;;;;0.52;0.30;;;18.70;67.40;;;;;;5067649;28;20062;-61
2022/07/29 00:40:43;;;;;;;0.95;0.50;;;18.80;67.50;;;;;;5069903;28;20028;-61
2022/07/29 00:43:09;;;;;;;1.67;0.45;;;18.70;67.40;;;;;;5068029;28;20029;-61
2022/07/29 00:45:35;;;;;;;1.08;0.40;;;18.70;67.50;;;;;;5071243;28;20062;-61
2022/07/29 00:48:04;;;;;;;1.27;0.40;;;18.70;67.50;;;;;;5069458;28;20060;-61
2022/07/29 00:50:30;;;;;;;1.27;0.40;;;18.70;67.70;;;;;;5069546;28;20365;-61
2022/07/29 00:52:56;;;;;;;1.90;0.50;;;18.70;67.90;;;;;;5072207;28;20098;-61
2022/07/29 00:55:22;;;;;;;0.73;0.30;;;18.70;67.90;;;;;;5070200;28;20393;-61
2022/07/29 00:57:48;;;;;;;1.17;0.52;;;18.70;67.90;;;;;;5069877;28;20043;-61
2022/07/29 01:00:22;;;;;;;1.83;0.50;;;18.70;68.00;;;;;;5071252;28;20068;-61
2022/07/29 01:02:48;;;;;;;1.65;0.50;;;18.70;68.00;;;;;;5069455;28;20131;-61
2022/07/29 01:05:16;;;;;;;1.52;0.43;;;18.70;68.10;;;;;;5069799;28;20017;-61
2022/07/29 01:07:42;;;;;;;1.55;0.50;;;18.70;68.10;;;;;;5072046;28;20043;-61
2022/07/29 01:10:12;;;;;;;1.20;0.40;;;18.70;68.10;;;;;;5071081;28;20480;-61
2022/07/29 01:12:39;;;;;;;1.40;0.40;;;18.70;68.10;;;;;;5067491;28;20017;-61
2022/07/29 01:15:07;;;;;;;1.00;0.40;;;18.60;68.10;;;;;;5068232;28;20515;-61
2022/07/29 01:18:01;;;;;;;0.80;0.30;;;18.70;68.30;;;;;;5069190;28;20067;-61
2022/07/29 01:20:31;;;;;;;0.90;0.40;;;18.60;68.30;;;;;;5068388;28;20032;-61
2022/07/29 01:23:35;;;;;;;0.90;0.40;;;18.60;68.60;;;;;;5071411;28;20020;-61
2022/07/29 01:26:14;;;;;;;0.68;0.40;;;18.70;68.70;;;;;;5071128;28;20150;-61
2022/07/29 01:28:43;;;;;;;1.20;0.40;;;18.60;69.00;;;;;;5082647;28;20491;-61
2022/07/29 01:31:10;;;;;;;1.00;0.50;;;18.60;69.30;;;;;;5068618;28;20063;-61
2022/07/29 01:33:49;;;;;;;1.70;0.50;;;18.60;69.60;;;;;;5068971;28;20472;-61
2022/07/29 01:36:22;;;;;;;1.73;0.50;;;18.50;69.60;;;;;;5049341;28;20020;-61
2022/07/29 01:39:16;;;;;;;0.80;0.40;;;18.50;69.90;;;;;;5066493;28;20024;-61
2022/07/29 01:41:55;;;;;;;1.90;0.60;;;18.50;70.00;;;;;;5068981;28;20372;-61
2022/07/29 01:44:31;;;;;;;1.42;0.50;;;18.40;70.50;;;;;;5068833;28;20017;-61
2022/07/29 01:47:00;;;;;;;1.73;0.50;;;18.40;71.00;;;;;;5067272;28;20025;-61
2022/07/29 01:49:30;;;;;;;3.25;0.70;;;18.40;71.50;;;;;;5056795;28;20162;-61
2022/07/29 01:52:03;;;;;;;2.38;0.50;;;18.30;72.30;;;;;;5068006;28;20016;-61
2022/07/29 01:54:42;;;;;;;0.80;0.32;;;18.30;72.40;;;;;;5069349;28;20051;-61
2022/07/29 01:57:11;;;;;;;1.25;0.50;;;18.30;72.80;;;;;;5066959;28;20020;-61
2022/07/29 01:59:38;;;;;;;1.13;0.50;;;18.20;73.00;;;;;;5068077;28;20477;-61
2022/07/29 02:02:05;;;;;;;1.20;0.40;;;18.20;73.40;;;;;;5068304;28;20028;-61
2022/07/29 02:04:33;;;;;;;2.95;0.50;;;18.20;73.60;;;;;;5068053;28;20028;-61
2022/07/29 02:07:03;;;;;;;4.55;0.50;;;18.10;74.30;;;;;;5069157;28;20038;-61
2022/07/29 02:09:31;;;;;;;1.48;0.40;;;18.10;74.90;;;;;;5067991;28;20507;-61
2022/07/29 02:11:58;;;;;;;1.63;0.50;;;18.10;75.40;;;;;;5082654;28;20487;-61
2022/07/29 02:14:26;;;;;;;1.23;0.50;;;18.00;75.90;;;;;;5068481;28;20099;-61
2022/07/29 02:16:54;;;;;;;1.08;0.50;;;18.00;76.40;;;;;;5065182;28;20056;-62
2022/07/29 02:19:23;;;;;;;0.68;0.50;;;18.00;77.00;;;;;;5067973;28;20063;-61
2022/07/29 02:21:51;;;;;;;0.95;0.60;;;18.00;77.40;;;;;;5066245;28;20033;-61
2022/07/29 02:24:18;;;;;;;1.25;0.55;;;17.90;77.80;;;;;;5067632;28;20021;-61
2022/07/29 02:26:44;;;;;;;2.10;0.55;;;17.90;78.00;;;;;;5068002;28;20028;-61
2022/07/29 02:29:13;;;;;;;2.50;0.60;;;17.90;78.10;;;;;;5067303;28;20021;-61
2022/07/29 02:31:39;;;;;;;1.40;0.80;;;17.80;78.40;;;;;;5068050;28;20028;-61
2022/07/29 02:34:07;;;;;;;1.63;0.80;;;17.80;79.20;;;;;;5067985;28;20059;-61
2022/07/29 02:36:34;;;;;;;3.42;0.80;;;17.70;79.50;;;;;;5063984;28;20044;-61
2022/07/29 02:39:01;;;;;;;1.35;0.77;;;17.60;79.80;;;;;;5067365;28;20024;-61
2022/07/29 02:41:43;;;;;;;1.50;0.80;;;17.60;80.00;;;;;;5068013;28;20017;-61
2022/07/29 02:44:15;;;;;;;3.72;0.95;;;17.60;81.20;;;;;;5067450;28;20028;-61
2022/07/29 02:46:45;;;;;;;1.98;0.93;;;17.50;81.80;;;;;;5066492;28;20027;-61
2022/07/29 02:49:35;;;;;;;1.85;1.10;;;17.40;82.50;;;;;;5067977;28;20031;-61
2022/07/29 02:52:02;;;;;;;;;;;17.40;83.40;;;;;;5067129;28;20021;-61
2022/07/29 02:54:41;;;;;;;4.28;1.45;;;17.30;83.90;;;;;;5066971;28;19919;-61
2022/07/29 02:57:23;;;;;;;1.92;1.13;;;17.20;85.10;;;;;;5066570;28;20033;-61
2022/07/29 02:59:52;;;;;;;1.65;0.95;;;17.10;85.90;;;;;;5082054;28;20159;-61
2022/07/29 03:02:18;;;;;;;3.28;0.95;;;17.00;86.00;;;;;;5067519;28;20108;-61
2022/07/29 03:04:45;;;;;;;2.55;0.98;;;16.90;86.20;;;;;;5067285;28;20135;-61
2022/07/29 03:07:14;;;;;;;3.50;1.30;;;16.90;86.30;;;;;;5067543;28;20021;-61
2022/07/29 03:09:42;;;;;;;1.77;1.58;;;16.90;86.10;;;;;;5068102;28;20442;-61
2022/07/29 03:12:08;;;;;;;2.85;1.40;;;16.90;86.20;;;;;;5067339;28;20074;-61
2022/07/29 03:14:35;;;;;;;3.83;1.70;;;16.80;86.60;;;;;;5066994;28;20024;-61
2022/07/29 03:17:00;;;;;;;3.47;1.42;;;16.80;87.30;;;;;;5066854;28;20115;-61
2022/07/29 03:19:26;;;;;;;2.88;1.25;;;16.70;87.70;;;;;;5066387;28;20433;-60
2022/07/29 03:21:54;;;;;;;4.50;1.27;;;16.70;87.90;;;;;;5067061;28;20032;-61
2022/07/29 03:24:32;;;;;;;1.50;0.90;;;16.70;88.00;;;;;;5066032;28;20021;-61
2022/07/29 03:26:58;;;;;;;2.03;1.00;;;16.70;88.30;;;;;;5064005;28;20036;-61
2022/07/29 03:29:24;;;;;;;2.40;1.02;;;16.60;87.70;;;;;;5067849;28;20057;-61
2022/07/29 03:31:50;;;;;;;2.90;1.48;;;16.70;87.70;;;;;;5068270;28;20062;-60
2022/07/29 03:34:16;;;;;;;1.63;1.15;;;16.60;87.80;;;;;;5064951;28;20027;-61
2022/07/29 03:36:41;;;;;;;2.33;1.40;;;16.60;88.10;;;;;;5065760;28;20024;-61
2022/07/29 03:39:10;;;;;;;3.97;1.70;;;16.60;88.30;;;;;;5067810;28;20100;-61
2022/07/29 03:41:38;;;;;;;3.63;1.33;;;16.60;88.50;;;;;;5068124;28;20016;-61
2022/07/29 03:44:07;;;;;;;3.45;1.60;;;16.60;88.60;;;;;;5065830;28;20020;-61
2022/07/29 03:46:35;;;;;;;1.85;1.20;;;16.50;89.00;;;;;;5066709;28;20029;-61
2022/07/29 03:49:04;;;;;;;2.17;1.17;;;16.50;89.20;;;;;;5065233;28;20438;-61
2022/07/29 03:51:30;;;;;;;5.57;1.42;;;16.50;89.50;;;;;;5066468;28;20079;-61
2022/07/29 03:53:57;;;;;;;3.92;1.60;;;16.50;89.90;;;;;;5066466;28;20024;-61
2022/07/29 03:56:24;;;;;;;3.75;1.42;;;16.40;90.20;;;;;;5066813;28;20047;-61
2022/07/29 03:58:53;;;;;;;2.80;1.30;;;16.40;90.40;;;;;;5068475;28;20020;-61
2022/07/29 04:01:20;;;;;;;2.05;1.13;;;16.30;90.50;;;;;;5070594;28;20044;-61
2022/07/29 04:03:46;;;;;;;2.58;1.67;;;16.30;90.80;;;;;;5070459;28;20430;-61
2022/07/29 04:06:12;;;;;;;3.15;1.20;;;16.20;91.10;;;;;;5071315;28;20028;-61
2022/07/29 04:08:38;;;;;;;3.97;1.58;;;16.20;91.30;;;;;;5070339;28;20392;-60
2022/07/29 04:11:05;;;;;;;4.10;1.45;;;16.20;91.60;;;;;;5070511;28;20036;-61
2022/07/29 04:13:31;;;;;;;3.35;1.23;;;16.20;91.70;;;;;;5069939;28;20384;-61
2022/07/29 04:15:57;;;;;;;2.95;1.10;;;16.20;91.90;;;;;;5070421;28;20024;-61
2022/07/29 04:18:23;;;;;;;3.55;1.38;;;16.10;91.90;;;;;;5069151;28;20061;-61
2022/07/29 04:20:49;;;;;;;3.67;1.40;;;16.10;92.00;;;;;;5071171;28;20024;-61
2022/07/29 04:23:15;;;;;;;2.53;1.20;;;16.10;92.00;;;;;;5069781;28;20028;-61
2022/07/29 04:25:41;;;;;;;1.88;1.05;;;16.10;92.00;;;;;;5070379;28;20020;-61
2022/07/29 04:28:07;;;;;;;2.05;0.90;;;16.10;92.00;;;;;;5066808;28;20075;-61
2022/07/29 04:30:34;;;;;;;7.95;1.55;;;16.10;92.00;;;;;;5070932;28;20031;-61
2022/07/29 04:33:01;;;;;;;1.42;1.00;;;16.10;92.00;;;;;;5070491;28;20056;-61
2022/07/29 04:35:28;;;;;;;2.45;0.90;;;16.10;92.00;;;;;;5070039;28;20384;-61
2022/07/29 04:37:54;;;;;;;2.28;0.85;;;16.10;92.00;;;;;;5084305;28;20020;-61
2022/07/29 04:40:33;;;;;;;2.13;0.77;;;16.10;92.00;;;;;;5070075;28;20016;-61
2022/07/29 04:43:00;;;;;;;2.08;0.77;;;16.20;92.00;;;;;;5064507;28;20036;-61
2022/07/29 04:45:26;;;;;;;3.95;0.88;;;16.20;91.90;;;;;;5068738;28;20560;-61
2022/07/29 04:47:52;;;;;;;1.92;0.90;;;16.20;91.90;;;;;;5069561;28;20029;-61
2022/07/29 04:50:17;;;;;;;1.60;0.82;;;16.20;91.90;;;;;;5068226;28;20024;-61
2022/07/29 04:52:43;;;;;;;2.45;1.20;;;16.20;91.90;;;;;;5069927;28;20060;-61
2022/07/29 04:55:09;;;;;;;2.35;1.08;;;16.20;91.90;;;;;;5067510;28;20448;-61
2022/07/29 04:57:35;;;;;;;1.85;1.08;;;16.10;92.00;;;;;;5068653;28;20013;-61
2022/07/29 05:00:00;;;;;;;1.00;0.77;;;16.10;92.00;;;;;;5069118;28;20048;-61
2022/07/29 05:02:26;;;;;;;1.80;1.00;;;16.20;92.00;;;;;;5069717;28;20040;-61
2022/07/29 05:04:52;;;;;;;1.95;1.23;;;16.20;92.00;;;;;;5067328;28;20029;-61
2022/07/29 05:07:17;;;;;;;2.53;1.40;;;16.20;92.10;;;;;;5070442;28;20032;-61
2022/07/29 05:09:46;;;;;;;2.60;1.27;;;16.20;92.10;;;;;;5069447;28;20427;-61
2022/07/29 05:12:11;;;;;;;2.33;0.98;;;16.10;92.10;;;;;;5069149;28;20020;-61
2022/07/29 05:14:37;;;;;;;2.90;1.30;;;16.10;92.20;;;;;;5068571;28;20065;-61
2022/07/29 05:17:03;;;;;;;2.20;1.40;;;16.20;92.30;;;;;;5082199;28;20024;-61
2022/07/29 05:19:28;;;;;;;1.13;1.02;;;16.20;92.30;;;;;;5068999;28;20024;-61
2022/07/29 05:21:54;;;;;;;2.05;1.10;;;16.10;92.20;;;;;;5084861;28;20017;-61
2022/07/29 05:24:19;;;;;;;2.83;1.25;;;16.20;92.20;;;;;;5068369;28;20024;-61
2022/07/29 05:26:45;;;;;;;2.50;1.35;;;16.20;92.20;;;;;;5081697;28;20031;-61
2022/07/29 05:29:11;;;;;;;4.57;1.33;;;16.20;92.40;;;;;;5067410;28;20056;-61
2022/07/29 05:31:36;;;;;;;2.40;1.05;;;16.20;92.40;;;;;;5067837;28;20389;-61
2022/07/29 05:34:02;;;;;;;2.85;1.30;;;16.20;92.40;;;;;;5068694;28;20071;-61
2022/07/29 05:36:27;;;;;;;4.05;1.92;;;16.20;92.40;;;;;;5067432;28;20028;-61
2022/07/29 05:38:53;;;;;;;2.60;1.50;;;16.20;92.50;;;;;;5069624;28;20027;-61
2022/07/29 05:41:19;;;;;;;1.90;1.20;;;16.20;92.50;;;;;;5067973;28;20020;-61
2022/07/29 05:43:45;;;;;;;3.15;1.30;;;16.20;92.50;;;;;;5069055;28;20564;-61
2022/07/29 05:46:10;;;;;;;1.95;1.13;;;16.30;92.50;;;;;;5060897;28;20078;-61
2022/07/29 05:48:36;;;;;;;2.10;0.85;;;16.30;92.50;;;;;;5076438;28;20028;-61
2022/07/29 05:51:02;;;;;;;2.05;0.80;;;16.30;92.50;;;;;;5065080;28;20035;-61
2022/07/29 05:53:27;;;;;;;3.00;0.98;;;16.40;92.40;;;;;;5066328;28;20082;-61
2022/07/29 05:55:53;;;;;;;1.52;0.85;;;16.40;92.30;;;;;;5060857;28;20025;-61
2022/07/29 05:58:19;;;;;;;1.10;0.80;;;16.50;92.30;;;;;;5065141;28;20028;-61
2022/07/29 06:00:45;;;;;;;1.30;0.80;;;16.50;92.20;;;;;;5072241;28;20143;-61
2022/07/29 06:03:11;;;;;;;1.63;0.90;;;16.60;92.20;;;;;;5054313;28;20024;-61
2022/07/29 06:05:36;;;;;;;1.83;0.98;;;16.60;92.10;;;;;;5057574;28;20104;-61
2022/07/29 06:08:02;;;;;;;2.08;1.27;;;16.60;92.20;;;;;;5069647;28;20074;-61
2022/07/29 06:10:28;;;;;;;5.57;1.70;;;16.60;92.20;;;;;;5072769;28;20572;-61
2022/07/29 06:12:54;;;;;;;4.30;2.28;;;16.60;92.30;;;;;;5074685;28;20115;-61
2022/07/29 06:15:19;;;;;;;1.83;1.60;;;16.60;92.20;;;;;;5068546;28;20595;-61
2022/07/29 06:17:45;;;;;;;2.42;1.55;;;16.70;92.20;;;;;;5053572;28;20029;-61
2022/07/29 06:20:11;;;;;;;2.58;1.30;;;16.70;92.20;;;;;;5068924;28;20021;-61
2022/07/29 06:22:36;;;;;;;2.50;1.55;;;16.70;92.10;;;;;;5055280;28;20075;-61
2022/07/29 06:25:03;;;;;;;1.63;1.02;;;16.70;92.00;;;;;;5055056;28;20538;-61
2022/07/29 06:27:29;;;;;;;2.80;1.55;;;16.80;91.90;;;;;;5057750;28;20029;-61
2022/07/29 06:29:56;;;;;;;3.65;1.50;;;16.80;91.90;;;;;;5065684;28;20488;-61
2022/07/29 06:32:22;;;;;;;2.20;1.17;;;16.80;91.80;;;;;;5057642;28;20541;-61
2022/07/29 06:34:47;;;;;;;3.50;1.42;;;16.90;91.80;;;;;;5070914;28;20104;-61
2022/07/29 06:37:14;;;;;;;1.65;1.27;;;17.00;91.70;;;;;;5056758;28;20081;-61
2022/07/29 06:39:39;;;;;;;1.65;1.00;;;17.00;91.50;;;;;;5070494;28;20403;-61
2022/07/29 06:42:06;;;;;;;3.40;1.20;;;17.10;91.40;;;;;;5056994;28;20030;-61
2022/07/29 06:44:33;;;;;;;4.00;1.40;;;17.10;91.40;;;;;;5070550;28;20032;-61
2022/07/29 06:46:59;;;;;;;3.70;1.40;;;17.20;91.40;;;;;;5068144;28;20491;-61
2022/07/29 06:49:26;;;;;;;3.08;2.10;;;17.20;91.20;;;;;;5070506;28;20035;-61
2022/07/29 06:51:52;;;;;;;2.13;1.00;;;17.30;91.20;;;;;;5059439;28;20074;-61
2022/07/29 06:54:17;;;;;;;2.45;1.35;;;17.40;91.20;;;;;;5062230;28;20075;-61
2022/07/29 06:56:43;;;;;;;1.65;1.20;;;17.40;91.10;;;;;;5067739;28;20032;-61
2022/07/29 06:59:10;;;;;;;2.15;1.30;;;17.40;91.00;;;;;;5068441;28;20028;-61
2022/07/29 07:01:37;;;;;;;1.67;1.15;;;17.50;91.00;;;;;;5076323;28;20076;-61
2022/07/29 07:04:03;;;;;;;2.20;1.13;;;17.60;90.90;;;;;;5072430;28;20016;-61
2022/07/29 07:06:29;;;;;;;1.70;1.10;;;17.60;90.80;;;;;;5072218;28;20032;-61
2022/07/29 07:08:54;;;;;;;2.42;1.73;;;17.60;90.80;;;;;;5071122;28;20054;-61
2022/07/29 07:11:20;;;;;;;3.63;1.33;;;17.70;90.70;;;;;;5067125;28;20273;-61
2022/07/29 07:13:46;;;;;;;2.65;1.52;;;17.70;90.60;;;;;;5057944;28;20057;-61
2022/07/29 07:16:12;;;;;;;3.60;1.55;;;17.80;90.90;;;;;;5068571;28;20032;-62
2022/07/29 07:18:37;;;;;;;2.85;1.70;;;17.80;90.60;;;;;;5058883;28;20017;-61
2022/07/29 07:21:04;;;;;;;4.15;1.67;;;17.90;90.60;;;;;;5067608;28;20017;-61
2022/07/29 07:23:30;;;;;;;2.50;1.15;;;17.90;90.50;;;;;;5071532;28;20082;-61
2022/07/29 07:25:55;;;;;;;3.33;1.45;;;18.00;90.70;;;;;;5069140;28;20477;-61
2022/07/29 07:28:21;;;;;;;2.28;1.05;;;18.10;90.30;;;;;;5070959;28;20047;-61
2022/07/29 07:30:46;;;;;;;2.30;1.08;;;18.20;90.10;;;;;;5070339;28;20435;-61
2022/07/29 07:33:12;;;;;;;1.80;1.05;;;18.30;89.90;;;;;;5068013;28;20123;-62
2022/07/29 07:35:38;;;;;;;3.95;1.20;;;18.40;89.50;;;;;;5067984;28;20021;-62
2022/07/29 07:38:05;;;;;;;2.30;1.02;;;18.40;89.10;;;;;;5062294;28;20025;-61
2022/07/29 07:40:31;;;;;;;2.58;1.60;;;18.40;89.00;;;;;;5063977;28;20024;-62
2022/07/29 07:42:57;;;;;;;2.53;1.30;;;18.50;88.80;;;;;;5049925;28;20379;-62
2022/07/29 07:45:23;;;;;;;2.03;1.30;;;18.50;88.60;;;;;;5069071;28;20456;-61
2022/07/29 07:47:49;;;;;;;2.70;1.40;;;18.50;88.40;;;;;;5062698;28;20036;-61
2022/07/29 07:50:15;;;;;;;5.07;1.60;;;18.60;88.40;;;;;;5076654;28;20024;-62
2022/07/29 07:52:52;;;;;;;2.38;1.20;;;18.60;88.20;;;;;;5064613;28;20027;-62
2022/07/29 07:55:18;;;;;;;4.97;2.22;;;18.60;88.00;;;;;;5065502;28;20405;-62
2022/07/29 07:57:45;;;;;;;2.53;1.60;;;18.60;87.80;;;;;;5068520;28;20016;-61
2022/07/29 08:00:12;;;;;;;1.67;1.25;;;18.70;87.50;;;;;;5084045;28;20044;-62
2022/07/29 08:02:39;;;;;;;2.13;1.35;;;18.70;87.30;;;;;;5087130;28;20013;-62
2022/07/29 08:05:05;;;;;;;2.33;1.08;;;18.80;87.30;;;;;;5056750;28;20083;-62
2022/07/29 08:07:31;;;;;;;3.42;1.20;;;18.80;87.20;;;;;;5054745;28;20082;-61
2022/07/29 08:09:56;;;;;;;1.65;1.02;;;18.90;87.20;;;;;;5056967;28;20025;-62
2022/07/29 08:12:22;;;;;;;1.73;0.85;;;19.00;87.10;;;;;;5077702;28;20039;-61
2022/07/29 08:14:47;;;;;;;3.25;1.02;;;19.10;87.00;;;;;;5075908;28;20031;-62
2022/07/29 08:17:13;;;;;;;2.55;1.10;;;19.20;86.80;;;;;;5056563;28;20029;-61
2022/07/29 08:19:39;;;;;;;2.70;1.00;;;19.20;86.50;;;;;;5063159;28;20028;-62
2022/07/29 08:22:05;;;;;;;3.22;0.98;;;19.30;86.30;;;;;;5065769;28;20108;-62
2022/07/29 08:24:42;;;;;;;2.53;1.25;;;19.40;86.20;;;;;;5064377;28;20116;-62
2022/07/29 08:27:09;;;;;;;1.98;1.13;;;19.40;85.80;;;;;;5056472;28;20032;-61
2022/07/29 08:29:35;;;;;;;2.22;1.30;;;19.50;85.70;;;;;;5061649;28;20542;-61
2022/07/29 08:32:00;;;;;;;3.97;1.48;;;19.60;85.30;;;;;;5053671;28;20029;-61
2022/07/29 08:34:26;;;;;;;2.13;1.30;;;19.60;85.00;;;;;;5061326;28;20366;-62
2022/07/29 08:36:51;;;;;;;3.30;1.50;;;19.70;85.00;;;;;;5058870;28;20480;-61
2022/07/29 08:39:17;;;;;;;3.78;1.63;;;19.70;84.90;;;;;;5054021;28;20337;-61
2022/07/29 08:41:42;;;;;;;2.90;1.40;;;19.70;84.80;;;;;;5064789;28;20017;-61
2022/07/29 08:44:09;;;;;;;2.63;1.23;;;19.80;84.90;;;;;;5066609;28;20031;-61
2022/07/29 08:46:38;;;;;;;2.50;1.10;;;19.90;84.90;;;;;;5068468;28;20549;-62
2022/07/29 08:49:04;;;;;;;3.20;1.50;;;19.90;84.60;;;;;;5064405;28;20378;-61
2022/07/29 08:51:33;;;;;;;3.15;1.88;;;20.10;84.40;;;;;;5080996;28;20078;-61
2022/07/29 08:53:58;;;;;;;3.67;1.00;;;20.20;84.10;;;;;;5061200;28;20419;-61
2022/07/29 08:56:24;;;;;;;1.20;0.77;;;20.20;83.90;;;;;;5079177;28;20083;-61
2022/07/29 08:58:50;;;;;;;2.13;1.17;;;20.30;83.70;;;;;;5069002;28;20024;-61
2022/07/29 09:01:21;;;;;;;1.38;0.90;;;20.40;83.70;;;;;;5069351;28;20068;-61
2022/07/29 09:03:46;;;;;;;3.17;0.80;;;20.50;83.60;;;;;;5070328;28;20021;-61
2022/07/29 09:06:17;;;;;;;1.63;0.88;;;20.60;83.50;;;;;;5067800;28;20028;-62
2022/07/29 09:08:44;;;;;;;2.08;1.02;;;20.60;83.20;;;;;;5070019;28;20027;-61
2022/07/29 09:11:11;;;;;;;1.75;1.20;;;20.60;83.10;;;;;;5055924;28;20021;-61
2022/07/29 09:13:37;;;;;;;2.38;0.90;;;20.60;83.20;;;;;;5074055;28;20012;-61
2022/07/29 09:16:03;;;;;;;4.15;0.93;;;20.60;83.10;;;;;;5063896;28;20033;-61
2022/07/29 09:18:35;;;;;;;2.47;1.10;;;20.70;83.00;;;;;;5055277;28;20017;-61
2022/07/29 09:24:00;;;;;;;1.98;1.20;;;20.80;83.00;;;;;;5057480;28;20070;-61
2022/07/29 09:26:30;;;;;;;3.03;1.05;;;20.90;83.10;;;;;;5055610;28;20047;-61
2022/07/29 09:28:57;;;;;;;2.75;1.20;;;20.90;83.00;;;;;;5055717;28;20079;-61
2022/07/29 09:31:36;;;;;;;1.60;1.23;;;21.00;82.80;;;;;;5057242;28;20021;-61
2022/07/29 09:34:02;;;;;;;1.73;1.15;;;21.10;82.50;;;;;;5072587;28;20039;-61
2022/07/29 09:36:29;;;;;;;4.35;2.05;;;21.10;82.60;;;;;;5057167;28;20060;-61
2022/07/29 09:38:59;;;;;;;2.88;1.42;;;21.20;82.40;;;;;;5060283;28;20051;-61
2022/07/29 09:41:26;;;;;;;1.85;1.40;;;21.20;82.20;;;;;;5072686;28;20017;-61
2022/07/29 09:43:59;;;;;;;3.00;1.60;;;21.30;82.20;;;;;;5059827;28;20028;-61
2022/07/29 09:46:35;;;;;;;3.00;1.70;;;21.40;82.10;;;;;;5080277;28;20685;-62
2022/07/29 09:49:14;;;;;;;2.75;1.17;;;21.50;81.90;;;;;;5066868;28;20064;-61
2022/07/29 09:51:41;;;;;;;2.97;1.55;;;21.50;82.30;;;;;;5069541;28;20230;-61
2022/07/29 09:54:27;;;;;;;2.30;1.20;;;21.60;81.40;;;;;;5085645;28;20024;-61
2022/07/29 09:56:54;;;;;;;2.40;1.23;;;21.70;80.70;;;;;;5068246;28;20013;-61
2022/07/29 09:59:24;;;;;;;4.18;1.67;;;21.80;80.60;;;;;;5080242;28;20032;-61
2022/07/29 10:01:52;;;;;;;2.58;1.40;;;21.90;80.40;;;;;;5072179;28;20060;-61
2022/07/29 10:04:19;;;;;;;2.80;1.35;;;21.90;80.10;;;;;;5053898;28;20013;-61
2022/07/29 10:07:02;;;;;;;2.97;1.02;;;22.00;79.80;;;;;;5057725;28;20024;-61
2022/07/29 10:09:28;;;;;;;2.97;1.25;;;22.20;79.50;;;;;;5060364;28;20052;-61
2022/07/29 10:12:05;;;;;;;3.60;1.17;;;22.30;79.40;;;;;;5069434;28;20017;-62
2022/07/29 10:14:34;;;;;;;1.20;0.80;;;22.50;78.90;;;;;;5068838;28;20405;-61
2022/07/29 10:17:03;;;;;;;2.30;1.38;;;22.60;78.50;;;;;;5053586;28;20162;-61
2022/07/29 10:19:30;;;;;;;4.55;1.40;;;22.80;77.80;;;;;;5051958;28;20085;-61
2022/07/29 10:21:57;;;;;;;1.98;1.13;;;22.80;77.30;;;;;;5053610;28;20455;-61
2022/07/29 10:24:29;;;;;;;2.30;1.40;;;22.90;76.90;;;;;;5053633;28;20159;-62
2022/07/29 10:26:56;;;;;;;1.20;1.00;;;23.00;76.10;;;;;;5068964;28;20085;-61
2022/07/29 10:29:22;;;;;;;2.25;1.35;;;23.10;76.00;;;;;;5068773;28;20100;-62
2022/07/29 10:32:02;;;;;;;2.70;1.30;;;23.20;76.00;;;;;;5062219;28;20024;-62
2022/07/29 10:35:04;;;;;;;5.03;1.20;;;23.40;75.90;;;;;;5054452;28;20025;-61
2022/07/29 10:37:52;;;;;;;2.88;2.15;;;23.50;75.60;;;;;;5057871;28;20021;-61
2022/07/29 10:43:46;;;;;;;3.20;1.40;;;23.70;73.40;;;;;;5063881;28;20582;-62
2022/07/29 10:46:13;;;;;;;2.67;1.20;;;23.80;73.50;;;;;;5062747;28;20024;-62
2022/07/29 10:49:07;;;;;;;4.15;1.15;;;23.90;73.20;;;;;;5065126;28;20483;-61
2022/07/29 10:51:50;;;;;;;3.63;1.80;;;24.10;72.80;;;;;;5062138;28;20027;-61
2022/07/29 10:54:37;;;;;;;2.45;1.10;;;24.20;71.20;;;;;;5060345;28;20021;-62
2022/07/29 10:57:25;;;;;;;2.20;1.00;;;24.20;71.00;;;;;;5049617;28;20464;-61
2022/07/29 11:00:11;;;;;;;3.03;1.23;;;24.30;70.30;;;;;;5061228;28;20043;-61
2022/07/29 11:02:40;;;;;;;4.10;0.80;;;24.30;68.60;;;;;;5068557;28;20025;-61
2022/07/29 11:05:08;;;;;;;1.58;0.88;;;24.50;68.50;;;;;;5063424;28;20465;-62
2022/07/29 11:07:34;;;;;;;1.98;0.73;;;24.70;67.20;;;;;;5055767;28;20036;-62
2022/07/29 11:10:12;;;;;;;4.38;0.80;;;24.80;67.00;;;;;;5058569;28;20025;-62
2022/07/29 11:12:38;;;;;;;2.95;1.00;;;25.00;65.20;;;;;;5080242;28;20066;-61
2022/07/29 11:15:08;;;;;;;2.47;0.68;;;25.10;65.00;;;;;;5059244;28;20033;-62
2022/07/29 11:17:52;;;;;;;2.47;0.68;;;25.30;64.60;;;;;;5065218;28;20122;-62
2022/07/29 11:20:36;;;;;;;1.95;0.60;;;25.50;64.10;;;;;;5066457;28;20101;-62
2022/07/29 11:23:31;;;;;;;1.67;0.90;;;25.80;63.80;;;;;;5060830;28;20079;-62
2022/07/29 11:26:25;;;;;;;1.58;0.75;;;26.00;62.60;;;;;;5067293;28;20025;-62
2022/07/29 11:29:23;;;;;;;4.82;0.77;;;26.30;61.60;;;;;;5057601;28;20027;-62
2022/07/29 11:31:54;;;;;;;2.13;0.93;;;26.50;60.80;;;;;;5059664;28;20100;-62
2022/07/29 11:34:32;;;;;;;3.97;0.88;;;26.60;60.00;;;;;;5069109;28;20036;-62
2022/07/29 11:37:07;;;;;;;2.72;0.98;;;26.80;60.00;;;;;;5081393;28;20073;-62
2022/07/29 11:39:41;;;;;;;2.42;0.60;;;26.90;59.70;;;;;;5066569;28;20024;-62
2022/07/29 11:42:16;;;;;;;2.92;1.00;;;27.00;59.80;;;;;;5069266;28;20028;-62
2022/07/29 11:44:58;;;;;;;2.17;0.70;;;27.20;59.50;;;;;;5061400;28;20104;-62
2022/07/29 11:47:25;;;;;;;4.10;1.70;;;27.40;59.00;;;;;;5063625;28;20027;-62
2022/07/29 11:49:52;;;;;;;3.50;1.10;;;27.40;58.20;;;;;;5061315;28;20383;-62
2022/07/29 11:52:18;;;;;;;3.65;1.33;;;27.40;57.90;;;;;;5065426;28;20116;-62
2022/07/29 11:54:46;;;;;;;3.25;1.05;;;27.40;57.70;;;;;;5077250;28;20060;-62
2022/07/29 11:57:12;;;;;;;2.33;0.90;;;27.50;57.80;;;;;;5061596;28;20377;-61
2022/07/29 11:59:43;;;;;;;3.63;1.15;;;27.70;57.70;;;;;;5066848;28;20024;-62
2022/07/29 12:02:09;;;;;;;1.98;0.95;;;27.80;56.20;;;;;;5061628;28;20036;-62
2022/07/29 12:04:56;;;;;;;1.83;0.90;;;27.90;56.10;;;;;;5066816;28;20031;-62
2022/07/29 12:07:32;;;;;;;2.17;1.17;;;28.10;56.40;;;;;;5068949;28;20074;-61
2022/07/29 12:09:58;;;;;;;3.33;1.00;;;28.10;55.90;;;;;;5060075;28;20032;-62
2022/07/29 12:12:24;;;;;;;2.60;0.90;;;28.20;56.00;;;;;;5067682;28;20492;-62
2022/07/29 12:14:50;;;;;;;1.60;1.00;;;28.40;55.70;;;;;;5067055;28;20060;-62
2022/07/29 12:17:34;;;;;;;3.25;0.98;;;28.60;55.50;;;;;;5061569;28;20123;-62
2022/07/29 12:20:04;;;;;;;2.45;0.90;;;28.80;55.30;;;;;;5069222;28;20509;-62
2022/07/29 12:22:33;;;;;;;2.97;0.90;;;28.90;54.80;;;;;;5058210;28;20068;-62
2022/07/29 12:25:04;;;;;;;1.48;0.70;;;28.90;54.70;;;;;;5059628;28;20380;-62
2022/07/29 12:27:30;;;;;;;2.22;0.90;;;29.10;54.40;;;;;;5075561;28;20037;-62
2022/07/29 12:30:01;;;;;;;2.67;0.80;;;29.30;53.50;;;;;;5060633;28;20029;-62
2022/07/29 12:32:36;;;;;;;1.77;0.77;;;29.50;53.10;;;;;;5062403;28;20062;-62
2022/07/29 12:35:05;;;;;;;3.10;1.00;;;29.70;52.70;;;;;;5071917;28;20025;-62
2022/07/29 12:37:33;;;;;;;2.15;0.80;;;29.80;52.50;;;;;;5059120;28;20035;-62
2022/07/29 12:39:59;;;;;;;2.05;0.93;;;30.00;52.40;;;;;;5055547;28;20036;-62
2022/07/29 12:42:25;;;;;;;1.50;0.70;;;30.10;51.80;;;;;;5074824;28;20021;-62
2022/07/29 12:44:51;;;;;;;3.10;0.80;;;30.20;51.80;;;;;;5057299;28;20043;-62
2022/07/29 12:47:18;;;;;;;2.20;0.93;;;30.30;51.20;;;;;;5059262;28;20541;-62
2022/07/29 12:49:44;;;;;;;2.58;1.10;;;30.40;49.60;;;;;;5072974;28;20480;-62
2022/07/29 12:52:30;;;;;;;3.25;0.95;;;30.40;48.80;;;;;;5061254;28;20028;-62
2022/07/29 12:54:55;;;;;;;2.90;1.05;;;30.20;48.90;;;;;;5074779;28;20044;-62
2022/07/29 12:57:22;;;;;;;2.17;0.70;;;30.20;49.40;;;;;;5058403;28;20033;-62
2022/07/29 13:00:07;;;;;;;2.85;0.90;;;30.50;49.20;;;;;;5083722;28;20448;-62
2022/07/29 13:02:34;;;;;;;1.67;0.80;;;30.70;48.20;;;;;;5055155;28;20100;-62
2022/07/29 13:05:00;;;;;;;1.85;0.73;;;30.50;48.10;;;;;;5055292;28;20029;-62